Time;durP1;ratioP1;P1;durP2;ratioP2;P2;SDS_P1;SDS_P2;PMS_P1;PMS_P2;Temp;Humidity;BMP_temperature;BMP_pressure;BME280_temperature;BME280_humidity;BME280_pressure;Samples;Min_cycle;Max_cycle;Signal;HPM_P1;HPM_P2
2021/05/28 00:02:06;;;;;;;18.57;12.40;;;;;;;12.08;57.05;100128.17;126599;1098;102927;-80
2021/05/28 00:04:54;;;;;;;14.60;10.60;;;;;;;12.03;57.27;100135.36;126629;1098;102938;-80
2021/05/28 00:07:43;;;;;;;16.00;11.70;;;;;;;11.98;57.40;100126.83;126541;1098;103193;-80
2021/05/28 00:10:31;;;;;;;17.17;11.77;;;;;;;11.93;57.84;100133.16;126551;1098;102811;-81
2021/05/28 00:13:19;;;;;;;15.50;11.87;;;;;;;11.88;57.78;100138.57;126579;1093;102940;-80
2021/05/28 00:16:07;;;;;;;17.80;11.03;;;;;;;11.83;57.93;100132.65;126518;1098;101935;-80
2021/05/28 00:18:55;;;;;;;17.33;10.83;;;;;;;11.80;58.21;100132.77;126562;1098;101824;-80
2021/05/28 00:21:43;;;;;;;14.50;11.20;;;;;;;11.75;58.45;100132.08;126539;1093;102975;-80
2021/05/28 00:24:30;;;;;;;17.23;10.97;;;;;;;11.71;58.33;100125.28;126594;1093;102856;-80
2021/05/28 00:27:18;;;;;;;16.00;11.60;;;;;;;11.67;58.58;100128.89;126518;1098;102945;-80
2021/05/28 00:30:07;;;;;;;13.30;10.93;;;;;;;11.63;58.65;100124.70;126526;1093;103120;-82
2021/05/28 00:32:54;;;;;;;14.63;10.50;;;;;;;11.60;58.98;100124.83;126508;1098;103144;-82
2021/05/28 00:35:43;;;;;;;14.83;11.47;;;;;;;11.57;58.64;100140.63;126503;1098;102960;-82
2021/05/28 00:38:30;;;;;;;16.23;11.90;;;;;;;11.53;59.08;100133.82;126620;1098;102955;-81
2021/05/28 00:41:18;;;;;;;14.30;10.77;;;;;;;11.48;59.35;100132.20;126596;1098;102974;-81
2021/05/28 00:44:06;;;;;;;13.20;10.33;;;;;;;11.43;59.36;100128.92;126576;1093;102825;-82
2021/05/28 00:46:55;;;;;;;14.70;10.50;;;;;;;11.40;59.40;100146.47;126447;1093;103110;-82
2021/05/28 00:49:42;;;;;;;15.93;10.50;;;;;;;11.35;59.57;100144.04;126514;1098;102930;-82
2021/05/28 00:52:31;;;;;;;13.63;10.47;;;;;;;11.30;60.00;100143.33;126464;1101;103119;-82
2021/05/28 00:55:19;;;;;;;17.83;11.00;;;;;;;11.27;60.07;100142.60;126675;1098;102929;-81
2021/05/28 00:58:08;;;;;;;14.17;11.13;;;;;;;11.25;60.15;100149.64;126548;1098;103066;-80
2021/05/28 01:00:56;;;;;;;16.03;11.10;;;;;;;11.22;60.56;100154.98;126553;1098;103068;-81
2021/05/28 01:03:44;;;;;;;18.13;11.10;;;;;;;11.18;60.30;100157.70;126574;1098;103033;-81
2021/05/28 01:06:33;;;;;;;15.83;11.07;;;;;;;11.13;60.43;100157.03;126637;1093;103094;-81
2021/05/28 01:09:21;;;;;;;14.20;10.27;;;;;;;11.10;60.59;100156.26;126602;1098;104379;-81
2021/05/28 01:12:10;;;;;;;13.13;10.17;;;;;;;11.05;60.85;100159.04;126550;1098;102760;-81
2021/05/28 01:14:59;;;;;;;14.20;10.10;;;;;;;11.01;60.99;100159.22;126579;1093;102934;-81
2021/05/28 01:17:46;;;;;;;14.17;10.40;;;;;;;10.99;60.77;100163.64;126551;1098;102987;-81
2021/05/28 01:20:34;;;;;;;;;;;;;;;10.95;61.27;100156.80;126517;1098;102952;-81
2021/05/28 01:23:22;;;;;;;14.98;10.85;;;;;;;10.88;61.42;100154.41;126467;1100;102771;-81
2021/05/28 01:26:11;;;;;;;16.40;11.07;;;;;;;10.84;61.46;100159.80;126558;1098;102918;-81
2021/05/28 01:28:59;;;;;;;15.10;12.20;;;;;;;10.84;61.86;100171.09;126534;1099;102950;-81
2021/05/28 01:31:47;;;;;;;17.20;12.23;;;;;;;10.83;61.90;100168.53;126455;1098;102941;-81
2021/05/28 01:34:35;;;;;;;18.67;13.23;;;;;;;10.79;62.23;100159.97;126464;1098;103848;-81
2021/05/28 01:37:23;;;;;;;16.87;13.70;;;;;;;10.76;62.38;100175.70;126421;1098;103020;-81
2021/05/28 01:40:13;;;;;;;19.50;13.60;;;;;;;10.69;62.31;100171.60;126474;1098;103094;-81
2021/05/28 01:43:00;;;;;;;20.43;14.63;;;;;;;10.60;62.33;100166.71;126476;1099;102928;-81
2021/05/28 01:45:48;;;;;;;18.57;14.77;;;;;;;10.57;62.54;100172.85;126488;1093;102918;-81
2021/05/28 01:48:38;;;;;;;20.87;14.10;;;;;;;10.54;62.98;100179.93;126628;1098;102961;-81
2021/05/28 01:51:27;;;;;;;17.10;12.93;;;;;;;10.49;63.21;100177.48;126566;1098;102927;-81
2021/05/28 01:54:16;;;;;;;17.17;13.87;;;;;;;10.40;63.19;100169.95;126763;1098;100954;-81
2021/05/28 01:57:05;;;;;;;18.20;14.27;;;;;;;10.36;63.30;100175.32;126563;1098;102931;-81
2021/05/28 01:59:53;;;;;;;18.90;14.23;;;;;;;10.31;63.62;100166.80;126526;1093;103001;-81
2021/05/28 02:02:41;;;;;;;18.13;14.07;;;;;;;10.26;63.69;100172.17;126514;1093;102926;-81
2021/05/28 02:05:30;;;;;;;20.03;14.57;;;;;;;10.22;63.86;100171.39;126415;1101;103520;-81
2021/05/28 02:08:18;;;;;;;19.37;15.20;;;;;;;10.19;63.82;100176.67;126573;1098;103065;-81
2021/05/28 02:11:06;;;;;;;19.60;14.83;;;;;;;10.18;63.99;100174.12;126512;1093;103034;-81
2021/05/28 02:13:54;;;;;;;20.63;15.27;;;;;;;10.13;64.03;100187.30;126504;1098;103007;-81
2021/05/28 02:16:42;;;;;;;20.75;14.80;;;;;;;10.10;64.32;100183.95;126461;1093;102929;-81
2021/05/28 02:19:30;;;;;;;20.47;15.50;;;;;;;10.05;64.12;100184.06;126524;1098;103059;-81
2021/05/28 02:22:18;;;;;;;18.77;13.93;;;;;;;10.05;64.45;100183.21;126510;1098;103008;-81
2021/05/28 02:25:06;;;;;;;19.90;14.37;;;;;;;10.04;64.66;100177.15;126535;1098;103002;-81
2021/05/28 02:27:54;;;;;;;17.87;13.47;;;;;;;10.02;64.70;100184.16;126569;1093;103008;-81
2021/05/28 02:30:42;;;;;;;17.33;13.40;;;;;;;10.02;64.54;100181.56;126436;1099;103090;-81
2021/05/28 02:33:30;;;;;;;17.60;13.27;;;;;;;10.03;64.76;100174.59;126545;1093;103132;-81
2021/05/28 02:36:17;;;;;;;19.13;14.10;;;;;;;10.04;65.09;100177.15;126537;1098;102975;-81
2021/05/28 02:39:09;;;;;;;15.37;12.57;;;;;;;10.06;65.11;100191.02;126496;1098;103062;-81
2021/05/28 02:41:57;;;;;;;16.73;12.77;;;;;;;10.05;65.17;100185.81;126545;1099;103499;-81
2021/05/28 02:44:44;;;;;;;16.53;13.33;;;;;;;10.04;65.36;100190.17;126513;1098;102831;-81
2021/05/28 02:47:32;;;;;;;15.67;12.43;;;;;;;10.05;65.20;100191.88;126433;1098;103176;-81
2021/05/28 02:50:20;;;;;;;15.15;13.00;;;;;;;10.09;65.63;100190.91;126570;1098;103001;-81
2021/05/28 02:53:07;;;;;;;16.80;12.97;;;;;;;10.12;65.38;100196.02;126493;1098;102233;-81
2021/05/28 02:55:55;;;;;;;16.63;13.27;;;;;;;10.16;65.32;100195.02;126518;1098;102945;-81
2021/05/28 02:58:43;;;;;;;13.97;11.80;;;;;;;10.23;65.62;100196.59;126445;1100;103030;-80
2021/05/28 03:01:31;;;;;;;14.17;12.63;;;;;;;10.29;65.65;100198.98;126530;1093;101921;-81
2021/05/28 03:04:19;;;;;;;12.97;11.67;;;;;;;10.36;65.59;100194.42;126511;1093;103090;-80
2021/05/28 03:07:06;;;;;;;14.53;12.27;;;;;;;10.41;65.75;100202.09;126557;1098;103078;-80
2021/05/28 03:09:57;;;;;;;15.85;12.40;;;;;;;10.46;65.49;100203.66;126530;1093;103048;-81
2021/05/28 03:12:47;;;;;;;17.70;12.23;;;;;;;10.53;65.75;100202.55;126496;1093;103048;-81
2021/05/28 03:15:35;;;;;;;13.33;11.77;;;;;;;10.62;65.66;100196.20;126572;1098;102991;-81
2021/05/28 03:18:25;;;;;;;15.10;12.53;;;;;;;10.70;65.40;100188.95;126557;1098;103453;-81
2021/05/28 03:24:07;;;;;;;15.37;11.97;;;;;;;10.94;65.46;100194.23;126530;1098;101428;-81
2021/05/28 03:26:55;;;;;;;13.60;11.47;;;;;;;11.03;65.15;100189.56;126679;1098;103027;-81
2021/05/28 03:29:43;;;;;;;13.50;11.67;;;;;;;11.14;65.11;100190.05;126526;1098;102990;-81
2021/05/28 03:32:30;;;;;;;;;;;;;;;11.25;64.94;100191.41;126540;1098;103891;-81
2021/05/28 03:35:18;;;;;;;11.43;10.27;;;;;;;11.32;64.84;100187.70;126537;1098;102915;-80
2021/05/28 03:38:05;;;;;;;;;;;;;;;11.44;64.76;100189.84;126484;1101;103103;-81
2021/05/28 03:40:53;;;;;;;11.93;9.90;;;;;;;11.52;64.47;100184.36;126517;1098;103103;-81
2021/05/28 03:43:41;;;;;;;12.93;10.83;;;;;;;11.57;64.33;100187.64;126497;1099;103002;-81
2021/05/28 03:46:30;;;;;;;14.80;10.70;;;;;;;11.62;64.11;100185.70;126435;1098;103216;-81
2021/05/28 03:49:18;;;;;;;13.17;9.60;;;;;;;11.64;64.06;100184.73;126556;1093;103046;-81
2021/05/28 03:52:06;;;;;;;11.13;9.77;;;;;;;11.67;64.21;100194.20;126608;1099;103184;-81
2021/05/28 03:54:54;;;;;;;10.50;9.40;;;;;;;11.71;64.00;100190.59;126472;1098;103189;-81
2021/05/28 03:57:42;;;;;;;12.03;10.57;;;;;;;11.69;63.81;100193.27;126527;1098;103014;-81
2021/05/28 04:00:31;;;;;;;11.63;10.00;;;;;;;11.68;64.06;100196.80;126472;1098;102961;-81
2021/05/28 04:03:19;;;;;;;12.23;10.43;;;;;;;11.69;64.33;100202.87;126586;1098;103011;-81
2021/05/28 04:06:06;;;;;;;;;;;;;;;11.65;64.07;100196.02;126471;1093;102954;-81
2021/05/28 04:08:54;;;;;;;11.47;10.00;;;;;;;11.63;64.16;100197.84;126469;1098;102858;-81
2021/05/28 04:11:42;;;;;;;13.57;10.33;;;;;;;11.65;64.45;100190.80;126511;1093;103144;-80
2021/05/28 04:14:31;;;;;;;11.40;8.90;;;;;;;11.65;64.33;100196.02;126518;1098;102936;-81
2021/05/28 04:17:18;;;;;;;10.23;8.80;;;;;;;11.61;64.27;100200.52;126537;1100;103011;-80
2021/05/28 04:20:10;;;;;;;12.80;10.53;;;;;;;11.62;64.36;100199.61;126716;1093;103044;-80
2021/05/28 04:22:57;;;;;;;12.60;9.90;;;;;;;11.64;64.56;100205.63;126546;1093;102802;-81
2021/05/28 04:25:46;;;;;;;12.37;9.93;;;;;;;11.65;64.41;100217.77;126539;1101;102926;-81
2021/05/28 04:28:34;;;;;;;10.23;8.90;;;;;;;11.66;64.79;100205.56;126530;1093;102939;-81
2021/05/28 04:31:22;;;;;;;11.00;9.57;;;;;;;11.69;64.78;100210.70;126518;1098;103156;-80
2021/05/28 04:34:09;;;;;;;9.77;8.57;;;;;;;11.70;64.72;100212.41;126542;1101;102992;-80
2021/05/28 04:36:57;;;;;;;9.97;8.77;;;;;;;11.71;64.71;100216.72;126551;1098;103129;-80
2021/05/28 04:39:45;;;;;;;12.40;9.10;;;;;;;11.71;64.64;100211.50;126582;1093;102927;-81
2021/05/28 04:42:35;;;;;;;9.40;8.50;;;;;;;11.70;64.98;100212.41;126593;1098;102947;-80
2021/05/28 04:45:23;;;;;;;10.73;8.87;;;;;;;11.73;64.84;100214.90;126465;1098;103014;-80
2021/05/28 04:48:11;;;;;;;10.47;9.37;;;;;;;11.80;65.00;100203.33;126537;1098;103888;-80
2021/05/28 04:50:58;;;;;;;10.07;8.23;;;;;;;11.82;64.78;100214.57;126618;1093;103315;-80
2021/05/28 04:53:46;;;;;;;;;;;;;;;11.85;64.89;100209.25;126500;1101;103054;-80
2021/05/28 04:56:33;;;;;;;9.37;8.47;;;;;;;11.88;64.80;100206.52;126509;1100;101871;-80
2021/05/28 04:59:21;;;;;;;9.20;8.20;;;;;;;11.98;64.83;100209.62;126549;1098;103065;-81
2021/05/28 05:02:08;;;;;;;;;;;;;;;12.07;64.84;100215.36;126596;1098;102944;-81
2021/05/28 05:04:56;;;;;;;9.47;8.47;;;;;;;12.12;64.82;100206.48;126602;1098;103126;-80
2021/05/28 05:07:44;;;;;;;10.23;8.73;;;;;;;12.22;64.81;100210.45;126575;1098;103104;-80
2021/05/28 05:10:33;;;;;;;11.55;8.30;;;;;;;12.35;64.54;100203.80;126537;1098;102362;-80
2021/05/28 05:13:20;;;;;;;10.00;9.00;;;;;;;12.45;64.44;100210.38;126567;1100;103004;-80
2021/05/28 05:16:08;;;;;;;9.77;8.57;;;;;;;12.58;64.19;100215.97;126459;1093;101769;-80
2021/05/28 05:18:56;;;;;;;10.30;8.73;;;;;;;12.69;64.04;100217.20;126474;1098;102966;-80
2021/05/28 05:21:44;;;;;;;10.30;9.20;;;;;;;12.81;63.94;100217.63;126473;1098;103101;-80
2021/05/28 05:24:32;;;;;;;11.07;8.27;;;;;;;12.92;63.74;100228.48;126474;1098;102985;-81
2021/05/28 05:27:19;;;;;;;11.10;8.37;;;;;;;13.10;63.50;100219.84;126518;1098;102925;-81
2021/05/28 05:30:08;;;;;;;11.73;8.87;;;;;;;13.25;63.12;100218.38;126393;1100;103104;-81
2021/05/28 05:32:56;;;;;;;11.10;8.90;;;;;;;13.44;63.20;100221.03;126445;1098;103112;-81
2021/05/28 05:35:44;;;;;;;9.53;8.57;;;;;;;13.73;62.89;100225.83;126455;1101;103075;-81
2021/05/28 05:38:32;;;;;;;9.30;7.87;;;;;;;14.09;62.61;100225.05;126565;1098;101201;-81
2021/05/28 05:41:20;;;;;;;;;;;;;;;14.59;61.63;100220.05;126550;1098;103570;-81
2021/05/28 05:44:08;;;;;;;8.80;7.77;;;;;;;15.16;60.52;100218.05;126617;1099;102980;-81
2021/05/28 05:46:57;;;;;;;9.47;7.70;;;;;;;15.87;59.38;100229.20;126507;1093;102856;-81
2021/05/28 05:49:45;;;;;;;8.90;7.97;;;;;;;16.93;57.35;100212.73;126492;1101;103002;-80
2021/05/28 05:52:33;;;;;;;9.50;7.90;;;;;;;17.76;55.92;100204.14;126495;1101;103019;-80
2021/05/28 05:55:22;;;;;;;7.63;6.80;;;;;;;18.53;54.50;100210.66;126605;1099;102969;-82
2021/05/28 05:58:13;;;;;;;9.70;7.03;;;;;;;19.25;53.03;100201.42;126485;1101;101076;-81
2021/05/28 06:01:01;;;;;;;8.53;7.43;;;;;;;19.92;52.15;100207.28;126483;1098;103210;-81
2021/05/28 06:03:48;;;;;;;7.27;6.37;;;;;;;21.11;50.81;100212.58;126527;1093;103017;-81
2021/05/28 06:06:36;;;;;;;8.30;6.20;;;;;;;22.41;48.07;100204.13;126571;1093;102901;-81
2021/05/28 06:09:24;;;;;;;;;;;;;;;22.69;46.13;100198.23;126544;1098;101834;-81
2021/05/28 06:12:12;;;;;;;8.13;5.83;;;;;;;23.27;45.07;100198.64;126550;1093;103330;-81
2021/05/28 06:14:59;;;;;;;6.10;5.17;;;;;;;24.75;43.89;100197.95;126483;1098;103155;-81
2021/05/28 06:17:47;;;;;;;6.03;5.43;;;;;;;26.20;41.87;100199.19;126443;1098;103101;-81
2021/05/28 06:20:35;;;;;;;7.47;5.70;;;;;;;26.68;39.78;100200.70;126452;1100;103003;-81
2021/05/28 06:23:25;;;;;;;5.70;5.03;;;;;;;26.14;38.56;100198.96;126726;1098;102965;-81
2021/05/28 06:26:12;;;;;;;6.40;4.97;;;;;;;25.38;38.65;100206.32;126648;1098;102927;-81
2021/05/28 06:29:02;;;;;;;5.70;5.10;;;;;;;24.62;39.32;100207.11;126496;1098;102965;-81
2021/05/28 06:31:50;;;;;;;10.10;5.13;;;;;;;23.80;39.73;100214.48;126496;1099;103101;-81
2021/05/28 06:34:38;;;;;;;8.23;5.87;;;;;;;23.21;40.55;100221.31;126522;1098;103004;-80
2021/05/28 06:37:25;;;;;;;5.33;4.83;;;;;;;22.76;40.50;100212.69;126562;1093;102985;-80
2021/05/28 06:40:13;;;;;;;6.13;5.40;;;;;;;22.24;41.13;100219.63;126534;1098;101244;-80
2021/05/28 06:43:01;;;;;;;6.20;5.60;;;;;;;21.92;42.08;100218.70;126499;1098;102944;-80
2021/05/28 06:45:52;;;;;;;5.20;4.70;;;;;;;21.67;42.11;100225.09;126491;1098;102952;-80
2021/05/28 06:48:39;;;;;;;6.07;5.47;;;;;;;21.40;42.11;100222.80;126571;1098;103071;-80
2021/05/28 06:51:28;;;;;;;7.07;5.30;;;;;;;21.11;42.50;100223.19;126523;1100;101362;-80
2021/05/28 06:54:15;;;;;;;7.00;5.47;;;;;;;21.06;42.76;100219.20;126536;1101;103510;-80
2021/05/28 06:57:04;;;;;;;6.80;5.10;;;;;;;20.93;42.89;100221.93;126393;1101;102927;-80
2021/05/28 06:59:52;;;;;;;6.53;5.10;;;;;;;21.24;42.84;100222.26;126498;1093;102078;-80
2021/05/28 07:02:40;;;;;;;6.07;4.50;;;;;;;22.10;41.99;100214.61;126425;1100;103207;-80
2021/05/28 07:05:29;;;;;;;5.00;4.50;;;;;;;22.95;41.26;100219.16;126645;1093;102957;-80
2021/05/28 07:08:17;;;;;;;4.27;3.87;;;;;;;23.85;40.31;100222.89;126592;1098;103125;-80
2021/05/28 07:11:06;;;;;;;4.50;3.70;;;;;;;24.05;37.96;100216.65;126496;1098;103039;-80
2021/05/28 07:13:54;;;;;;;4.93;4.20;;;;;;;24.04;38.49;100220.30;126781;1098;102259;-80
2021/05/28 07:16:43;;;;;;;5.60;3.90;;;;;;;25.17;37.95;100218.04;126562;1098;103008;-80
2021/05/28 07:19:32;;;;;;;4.30;3.90;;;;;;;25.99;36.87;100221.83;126556;1099;101763;-81
2021/05/28 07:22:20;;;;;;;4.37;3.73;;;;;;;26.79;36.17;100216.53;126442;1098;101493;-81
2021/05/28 07:25:09;;;;;;;4.53;3.30;;;;;;;27.14;34.14;100225.53;126406;1100;103046;-81
2021/05/28 07:27:58;;;;;;;4.43;3.20;;;;;;;27.32;33.70;100226.33;126529;1098;103133;-80
2021/05/28 07:30:47;;;;;;;4.13;3.23;;;;;;;26.90;33.92;100222.61;126519;1098;102982;-81
2021/05/28 07:33:36;;;;;;;4.10;2.90;;;;;;;26.55;34.14;100223.47;126708;1098;101198;-80
2021/05/28 07:36:23;;;;;;;3.50;3.07;;;;;;;26.32;33.84;100217.70;126479;1098;101469;-82
2021/05/28 07:39:11;;;;;;;4.45;3.30;;;;;;;26.55;33.71;100226.98;126516;1098;103512;-80
2021/05/28 07:42:04;;;;;;;4.93;3.03;;;;;;;27.24;33.69;100225.41;126617;1098;102926;-80
2021/05/28 07:44:51;;;;;;;5.83;2.80;;;;;;;28.87;32.06;100225.07;126513;1098;103027;-80
2021/05/28 07:47:39;;;;;;;2.60;2.40;;;;;;;30.22;30.15;100223.43;126713;1098;102938;-80
2021/05/28 07:50:28;;;;;;;2.87;1.93;;;;;;;31.50;29.18;100216.36;126511;1098;102973;-80
2021/05/28 07:53:22;;;;;;;1.73;1.63;;;;;;;32.36;28.09;100218.34;126511;1093;102978;-80
2021/05/28 07:56:10;;;;;;;2.53;2.00;;;;;;;33.14;27.31;100213.05;126566;1098;103023;-80
2021/05/28 07:58:58;;;;;;;3.67;2.10;;;;;;;32.97;25.91;100209.80;126506;1098;102924;-81
2021/05/28 08:01:45;;;;;;;2.83;1.97;;;;;;;32.67;25.54;100218.02;126471;1098;102995;-81
2021/05/28 08:04:34;;;;;;;2.67;2.10;;;;;;;32.62;25.63;100215.06;126502;1098;102944;-79
2021/05/28 08:07:22;;;;;;;2.35;2.15;;;;;;;32.23;25.67;100223.55;126374;1099;102924;-80
2021/05/28 08:10:10;;;;;;;2.60;2.30;;;;;;;32.13;25.41;100225.70;126576;1098;103190;-80
2021/05/28 08:12:58;;;;;;;2.80;1.97;;;;;;;32.48;25.41;100207.02;126475;1101;102982;-80
2021/05/28 08:15:45;;;;;;;2.73;2.33;;;;;;;31.72;25.45;100217.28;126546;1098;101646;-80
2021/05/28 08:18:35;;;;;;;2.43;2.23;;;;;;;31.08;25.83;100219.63;126451;1098;102979;-80
2021/05/28 08:21:23;;;;;;;2.60;2.30;;;;;;;31.20;25.88;100213.63;126488;1098;102950;-80
2021/05/28 08:24:11;;;;;;;3.83;2.40;;;;;;;30.14;25.57;100231.53;126540;1098;103057;-80
2021/05/28 08:26:59;;;;;;;4.93;2.30;;;;;;;29.27;26.45;100230.61;126479;1101;102965;-80
2021/05/28 08:29:47;;;;;;;2.07;1.80;;;;;;;29.70;26.70;100224.80;126534;1098;102407;-80
2021/05/28 08:32:36;;;;;;;3.93;1.90;;;;;;;30.33;26.43;100212.25;126518;1093;103072;-80
2021/05/28 08:35:24;;;;;;;2.40;1.90;;;;;;;30.26;25.88;100217.51;126445;1098;102996;-80
2021/05/28 08:38:12;;;;;;;1.83;1.70;;;;;;;29.28;25.96;100224.22;126342;1098;103072;-79
2021/05/28 08:41:00;;;;;;;2.23;2.03;;;;;;;28.92;27.09;100223.75;126351;1101;103583;-79
2021/05/28 08:43:49;;;;;;;2.43;1.63;;;;;;;29.50;26.92;100222.69;126421;1099;102953;-80
2021/05/28 08:46:36;;;;;;;2.53;1.93;;;;;;;29.32;27.01;100229.07;126438;1099;103010;-81
2021/05/28 08:49:24;;;;;;;2.40;2.10;;;;;;;28.57;27.15;100220.34;126421;1098;103193;-82
2021/05/28 08:52:12;;;;;;;2.53;1.90;;;;;;;27.63;27.42;100220.48;126470;1098;102927;-80
2021/05/28 08:54:59;;;;;;;2.00;1.80;;;;;;;27.35;28.03;100225.17;126409;1098;102779;-80
2021/05/28 08:57:50;;;;;;;2.03;1.83;;;;;;;27.75;27.77;100229.10;126450;1099;103166;-81
2021/05/28 09:00:39;;;;;;;1.83;1.73;;;;;;;27.91;28.00;100219.30;126514;1093;102960;-80
2021/05/28 09:03:33;;;;;;;3.60;1.70;;;;;;;27.67;27.52;100220.03;126496;1098;102790;-80
2021/05/28 09:06:21;;;;;;;3.00;1.90;;;;;;;27.23;28.26;100216.55;126633;1093;102960;-80
2021/05/28 09:09:23;;;;;;;3.70;1.63;;;;;;;27.85;28.57;100211.06;126437;1098;102933;-81
2021/05/28 09:12:11;;;;;;;1.73;1.47;;;;;;;28.68;27.78;100211.11;126691;1098;102964;-80
2021/05/28 09:14:58;;;;;;;2.20;1.33;;;;;;;28.42;27.46;100213.94;126584;1093;103032;-80
2021/05/28 09:17:51;;;;;;;3.43;1.80;;;;;;;27.56;27.04;100217.59;126525;1098;103010;-80
2021/05/28 09:20:45;;;;;;;2.20;1.13;;;;;;;26.93;27.31;100215.14;126500;1098;102972;-80
2021/05/28 09:23:34;;;;;;;3.97;1.40;;;;;;;26.92;28.19;100197.38;126492;1099;102923;-80
2021/05/28 09:26:25;;;;;;;1.33;1.23;;;;;;;27.19;27.88;100203.64;126663;1098;103051;-80
2021/05/28 09:29:14;;;;;;;2.23;0.97;;;;;;;27.07;27.35;100208.39;126472;1098;102747;-80
2021/05/28 09:32:21;;;;;;;1.90;1.47;;;;;;;26.82;28.04;100204.67;126542;1098;103051;-80
2021/05/28 09:35:12;;;;;;;2.00;1.20;;;;;;;26.78;27.77;100204.14;126481;1099;102981;-80
2021/05/28 09:38:00;;;;;;;2.60;1.30;;;;;;;27.29;28.28;100193.64;126526;1099;103035;-80
2021/05/28 09:40:47;;;;;;;1.00;0.90;;;;;;;27.95;27.09;100196.52;126534;1098;102966;-80
2021/05/28 09:43:35;;;;;;;1.00;0.83;;;;;;;28.28;25.97;100184.07;126513;1098;103586;-80
2021/05/28 09:46:24;;;;;;;1.67;1.00;;;;;;;28.59;25.72;100180.77;126493;1099;101516;-80
2021/05/28 09:49:11;;;;;;;2.47;1.03;;;;;;;27.91;26.32;100191.65;126615;1093;102932;-80
2021/05/28 09:52:32;;;;;;;1.10;1.00;;;;;;;27.46;25.95;100202.61;126493;1100;103148;-80
2021/05/28 09:55:25;;;;;;;2.67;1.00;;;;;;;27.76;26.21;100188.73;126451;1101;102989;-80
2021/05/28 09:58:13;;;;;;;1.40;1.23;;;;;;;27.93;26.18;100190.48;126606;1098;103082;-80
2021/05/28 10:01:10;;;;;;;1.47;0.90;;;;;;;28.46;24.88;100191.14;126425;1098;103094;-80
2021/05/28 10:04:09;;;;;;;1.30;0.93;;;;;;;28.47;25.63;100179.41;126490;1100;102947;-80
2021/05/28 10:06:57;;;;;;;3.03;1.20;;;;;;;28.89;25.13;100176.58;126500;1101;102287;-80
2021/05/28 10:09:46;;;;;;;1.83;1.40;;;;;;;29.05;24.99;100175.72;126696;1098;102968;-80
2021/05/28 10:12:33;;;;;;;3.30;1.17;;;;;;;29.10;24.58;100168.85;126567;1098;103085;-80
2021/05/28 10:15:21;;;;;;;1.67;1.30;;;;;;;29.10;25.43;100174.23;126427;1098;103072;-80
2021/05/28 10:18:10;;;;;;;1.67;1.20;;;;;;;29.07;24.20;100179.91;126358;1101;102971;-80
2021/05/28 10:20:58;;;;;;;1.63;1.10;;;;;;;28.69;24.59;100176.05;126466;1093;102998;-80
2021/05/28 10:23:48;;;;;;;1.10;1.00;;;;;;;28.51;24.42;100172.69;126458;1101;102962;-80
2021/05/28 10:26:37;;;;;;;2.00;1.10;;;;;;;28.03;25.24;100179.63;126515;1098;103121;-80
2021/05/28 10:29:26;;;;;;;1.23;1.13;;;;;;;27.37;25.59;100177.64;126720;1093;102925;-80
2021/05/28 10:32:14;;;;;;;1.40;1.30;;;;;;;26.87;25.97;100170.25;126519;1098;103020;-80
2021/05/28 10:35:18;;;;;;;2.93;2.10;;;;;;;26.11;27.04;100172.54;126531;1098;102947;-80
2021/05/28 10:38:34;;;;;;;5.07;2.30;;;;;;;25.42;28.01;100183.67;126497;1098;102929;-80
2021/05/28 10:41:25;;;;;;;2.47;1.50;;;;;;;25.00;28.67;100187.59;126581;1098;103117;-79
2021/05/28 10:44:15;;;;;;;1.53;1.43;;;;;;;24.47;28.87;100178.33;126754;1093;103025;-80
2021/05/28 10:47:11;;;;;;;2.67;1.50;;;;;;;24.07;29.28;100180.08;126469;1093;103070;-81
2021/05/28 10:50:04;;;;;;;1.50;1.30;;;;;;;23.81;29.24;100182.38;126455;1098;103010;-79
2021/05/28 10:53:08;;;;;;;3.87;1.20;;;;;;;23.53;29.90;100184.92;126534;1098;102990;-80
2021/05/28 10:56:14;;;;;;;3.27;1.10;;;;;;;23.13;29.55;100183.02;126416;1101;103010;-80
2021/05/28 10:59:10;;;;;;;2.90;1.70;;;;;;;22.56;31.10;100170.97;126344;1098;102988;-81
2021/05/28 11:01:58;;;;;;;1.20;1.10;;;;;;;21.91;31.27;100172.72;126403;1099;102950;-80
2021/05/28 11:04:49;;;;;;;3.53;1.70;;;;;;;21.46;32.17;100194.94;126512;1098;102920;-81
2021/05/28 11:07:43;;;;;;;2.70;1.87;;;;;;;20.92;33.86;100196.38;126709;1098;102927;-80
2021/05/28 11:10:33;;;;;;;9.03;3.13;;;;;;;20.44;35.01;100193.78;126586;1098;102974;-80
2021/05/28 11:13:21;;;;;;;2.80;2.03;;;;;;;20.09;36.39;100204.27;126539;1098;102918;-80
2021/05/28 11:16:09;;;;;;;2.83;2.20;;;;;;;19.86;37.30;100203.28;126465;1093;103390;-80
2021/05/28 11:19:00;;;;;;;2.23;2.03;;;;;;;19.82;37.35;100199.17;126665;1098;102965;-80
2021/05/28 11:21:55;;;;;;;2.77;1.80;;;;;;;20.15;37.52;100189.77;126465;1098;102920;-80
2021/05/28 11:24:51;;;;;;;5.40;1.53;;;;;;;20.25;36.74;100201.36;126449;1093;103050;-80
2021/05/28 11:27:42;;;;;;;1.37;1.27;;;;;;;20.20;36.72;100201.70;126709;1098;102950;-80
2021/05/28 11:30:49;;;;;;;1.50;1.27;;;;;;;20.09;36.66;100198.13;126522;1099;102892;-80
2021/05/28 11:33:42;;;;;;;1.80;1.10;;;;;;;19.90;36.78;100188.86;126564;1099;103005;-80
2021/05/28 11:36:40;;;;;;;2.87;1.37;;;;;;;19.77;37.12;100201.30;126466;1098;102927;-80
2021/05/28 11:39:29;;;;;;;;;;;;;;;19.61;37.09;100208.63;126565;1098;101743;-80
2021/05/28 11:42:19;;;;;;;1.97;0.70;;;;;;;19.31;37.10;100209.77;126501;1099;102955;-80
2021/05/28 11:45:15;;;;;;;2.43;0.60;;;;;;;19.02;36.52;100203.81;126541;1100;102928;-80
2021/05/28 11:48:09;;;;;;;0.87;0.60;;;;;;;18.71;36.47;100210.33;126457;1101;103378;-80
2021/05/28 11:50:59;;;;;;;1.10;1.00;;;;;;;18.42;36.95;100206.07;126494;1101;103048;-80
2021/05/28 11:53:47;;;;;;;1.10;1.00;;;;;;;18.23;37.40;100205.57;126477;1101;103088;-80
2021/05/28 11:56:35;;;;;;;0.97;0.87;;;;;;;18.03;37.89;100217.41;126488;1101;102921;-80
2021/05/28 11:59:57;;;;;;;0.90;0.90;;;;;;;17.90;38.14;100204.13;126446;1093;103085;-80
2021/05/28 12:02:48;;;;;;;0.93;0.70;;;;;;;17.78;38.45;100218.11;126307;1101;102964;-80
2021/05/28 12:05:40;;;;;;;0.90;0.80;;;;;;;17.80;38.77;100210.95;126431;1101;103091;-80
2021/05/28 12:08:29;;;;;;;1.43;0.60;;;;;;;18.07;39.15;100203.06;126508;1101;103090;-80
2021/05/28 12:11:16;;;;;;;1.17;0.80;;;;;;;18.55;38.86;100192.92;126458;1101;102930;-80
2021/05/28 12:14:04;;;;;;;5.97;0.80;;;;;;;19.11;38.52;100181.21;126450;1101;103120;-79
2021/05/28 12:16:52;;;;;;;1.17;0.70;;;;;;;19.49;37.87;100190.93;126412;1093;102987;-80
2021/05/28 12:19:40;;;;;;;1.93;0.73;;;;;;;19.86;37.49;100176.81;126447;1101;103062;-80
2021/05/28 12:22:28;;;;;;;1.50;1.30;;;;;;;20.17;37.36;100185.20;126367;1101;103265;-80
2021/05/28 12:25:16;;;;;;;2.63;1.10;;;;;;;20.25;37.04;100180.17;126501;1101;102965;-79
2021/05/28 12:28:14;;;;;;;1.77;0.90;;;;;;;20.02;36.87;100195.09;126533;1101;102931;-80
2021/05/28 12:31:21;;;;;;;1.40;1.10;;;;;;;19.70;37.07;100189.45;126462;1101;103041;-79
2021/05/28 12:34:12;;;;;;;0.80;0.80;;;;;;;19.42;36.79;100179.94;126493;1101;103908;-80
2021/05/28 12:37:02;;;;;;;0.40;0.40;;;;;;;19.16;36.15;100187.02;126412;1101;102394;-81
2021/05/28 12:39:50;;;;;;;0.80;0.80;;;;;;;19.01;36.26;100194.19;126451;1094;102953;-80
2021/05/28 12:42:39;;;;;;;2.50;0.50;;;;;;;19.07;36.68;100195.59;126356;1096;102955;-81
2021/05/28 12:45:44;;;;;;;0.63;0.63;;;;;;;19.21;36.93;100195.50;126428;1101;103012;-80
2021/05/28 12:48:50;;;;;;;1.27;0.80;;;;;;;19.23;36.82;100190.95;126434;1101;102991;-80
2021/05/28 12:51:41;;;;;;;4.93;0.80;;;;;;;19.33;36.95;100189.34;126479;1093;103203;-80